Ashland, OH

3:12 PM EDT on March 26, 2015 (GMT -0400)
US Hwy 42 - Ashland, OH 44805 | Change Station
CLOSE
Current Station
Personal Weather Station
Location: Ashland, OH
Elevation: 1165 ft
Nearby Weather Stations

Elev 1165 ft 40.83 °N, 82.38 °W | Updated 1 second ago

Overcast
Overcast
38.6 °F
Feels Like 34 °F
N
6.9
Wind Variable Wind from NNW
Gusts 6.9 mph

Today
High -- | Low -- °F
--% Chance of Precip.
Yesterday
High -- | Low -- °F
Precip. -- in
7:23 AM 7:47 PM
Waxing Crescent, 45% visible
Pressure 29.83 in
Visibility 10.0 miles
Clouds Overcast 700 ft
Windchill 34 °F
Dew Point 39 °F
Humidity 100%
Rainfall 0.49 in
Snow Depth Not available.
UV 2 out of 12
Pollen .70 out of 12
Air Quality Not available.
Flu Activity Not available.
METAR KMFD 261852Z 30008KT 10SM OVC007 04/03 A2981 RMK AO2 RAE1753B09E33 SLP100 P0001 T00390028

More Conditions Fewer Conditions

Pressure 29.83 in
Visibility 10.0 miles
Clouds Overcast 700 ft
Windchill 34 °F
Dew Point 39 °F
Humidity 100%
Rainfall 0.49 in
Snow Depth Not available.
UV 2 out of 12
Pollen .70 out of 12
Air Quality Not available.
Flu Activity Not available.
METAR KMFD 261852Z 30008KT 10SM OVC007 04/03 A2981 RMK AO2 RAE1753B09E33 SLP100 P0001 T00390028

More Conditions Fewer Conditions

10-Day Weather Forecast

Almanac

Astronomy

Mar. 26, 2015 Rise Set
Actual Time
Civil Twilight
Nautical Twilight
Astronomical Twilight
Moon
Length of Visible Light
Length of Day
Tomorrow will be .
, % of the Moon is Illuminated

Today's Extremes

State Highs State Lows

Community

WunderPhotos

Upload Photos

1,808,606 photos uploaded!

WunderBlogs® & News

Nearby

Air Quality

  Air Quality AQ Index Pollutant
Not available.

Snow Depth

Station Depth Elevation

Earthquake Activity

City Distance Mag. Time & Date
Minimum magnitude displayed is 2.5.

Coastal Water Temperatures

Place Temperature

Stations

Nearby Weather Stations

Station Location Temp. Windchill Dew Point Humidity Wind Precip. Elev Updated Type